Cullera, Spain
Current Conditions -  °F | °C
As of 2:30 AM on Tuesday 25 Nov 2014 (Local Time) from LEVC Reporting Station
Overcast Overcast  
Wind Chill: 59°   Ceiling: 3500
Heat Index: 59°   Visibility: 6mi
Dew Point: 59°   Wind: 3mph
Humidity: 100%   Direction: 310°NW
Pressure: 30.03"   Gusts: NA
Location:  39.17°N, 0.25°W
Report Text: LEVC 250130Z 31003KT 290V350 9000 OVC035 15/15 Q1017 NOSIG
Loading
Personal Weather Stations






























Interactive Weather Map New forecast layout! Learn more

10-Day Weather Forecast

Advertisements
Track Severe Weather on mobile